Time;durP1;ratioP1;P1;durP2;ratioP2;P2;SDS_P1;SDS_P2;PMS_P1;PMS_P2;Temp;Humidity;BMP_temperature;BMP_pressure;BME280_temperature;BME280_humidity;BME280_pressure;Samples;Min_cycle;Max_cycle;Signal;HPM_P1;HPM_P2
2023/05/23 00:01:45;;;;;;;22.43;17.93;;;;;;;14.39;100.00;100479.63;7393928;19;20552;-47
2023/05/23 00:04:17;;;;;;;32.37;21.90;;;;;;;14.40;100.00;100460.59;7399775;19;20452;-49
2023/05/23 00:06:49;;;;;;;23.60;18.80;;;;;;;14.34;100.00;100449.19;7394331;19;20475;-44
2023/05/23 00:09:22;;;;;;;24.93;19.80;;;;;;;14.28;100.00;100461.22;7396965;19;20423;-47
2023/05/23 00:11:51;;;;;;;26.13;19.40;;;;;;;14.32;100.00;100459.56;7392873;19;20538;-46
2023/05/23 00:14:22;;;;;;;29.33;21.00;;;;;;;14.32;100.00;100451.78;7395724;19;20421;-49
2023/05/23 00:16:52;;;;;;;40.50;26.50;;;;;;;14.36;100.00;100444.94;7392147;19;20450;-48
2023/05/23 00:19:21;;;;;;;33.43;25.00;;;;;;;14.35;100.00;100427.63;7396940;19;20407;-45
2023/05/23 00:21:52;;;;;;;41.27;26.40;;;;;;;14.37;100.00;100421.63;7392670;19;20483;-48
2023/05/23 00:24:24;;;;;;;39.60;27.77;;;;;;;14.40;100.00;100421.66;7396671;19;20414;-45
2023/05/23 00:26:54;;;;;;;35.33;23.60;;;;;;;14.36;100.00;100413.78;7393740;19;20449;-45
2023/05/23 00:29:23;;;;;;;28.50;20.63;;;;;;;14.26;100.00;100405.81;7395895;19;20412;-47
2023/05/23 00:31:53;;;;;;;30.77;23.40;;;;;;;14.14;100.00;100414.22;7392232;19;20451;-50
2023/05/23 00:34:23;;;;;;;30.03;21.00;;;;;;;14.12;100.00;100417.63;7395638;19;20431;-47
2023/05/23 00:36:53;;;;;;;31.83;21.07;;;;;;;14.17;100.00;100408.22;7392900;19;20449;-45
2023/05/23 00:39:25;;;;;;;31.43;21.60;;;;;;;14.12;100.00;100415.03;7396182;19;20779;-49
2023/05/23 00:41:55;;;;;;;45.20;31.30;;;;;;;14.11;100.00;100414.13;7394118;19;20484;-47
2023/05/23 00:44:24;;;;;;;32.40;20.67;;;;;;;14.12;100.00;100413.31;7395525;19;20930;-45
2023/05/23 00:46:56;;;;;;;47.00;30.47;;;;;;;14.16;100.00;100409.91;7392149;19;20449;-43
2023/05/23 00:49:27;;;;;;;31.97;23.43;;;;;;;14.17;100.00;100400.44;7395479;19;20416;-45
2023/05/23 00:51:56;;;;;;;32.63;25.50;;;;;;;14.14;100.00;100393.47;7394976;19;20458;-44
2023/05/23 00:54:30;;;;;;;29.97;22.90;;;;;;;14.14;100.00;100402.94;7395873;19;20421;-43
2023/05/23 00:57:00;;;;;;;45.77;26.80;;;;;;;14.18;100.00;100374.53;7393979;19;20449;-44
2023/05/23 00:59:30;;;;;;;29.57;21.63;;;;;;;14.13;100.00;100381.34;7391939;19;20441;-42
2023/05/23 01:02:01;;;;;;;35.70;27.20;;;;;;;14.15;100.00;100379.63;7394279;19;20467;-45
2023/05/23 01:04:33;;;;;;;52.37;34.40;;;;;;;14.21;100.00;100372.84;7392133;19;20411;-43
2023/05/23 01:07:03;;;;;;;33.07;23.50;;;;;;;14.43;100.00;100338.69;7393065;19;20928;-45
2023/05/23 01:09:35;;;;;;;84.13;47.13;;;;;;;14.66;100.00;100327.00;7394395;19;20413;-47
2023/05/23 01:12:14;;;;;;;57.60;36.30;;;;;;;14.49;100.00;100326.66;7394798;19;20480;-44
2023/05/23 01:14:48;;;;;;;49.27;31.50;;;;;;;14.40;100.00;100330.84;7391834;19;20405;-44
2023/05/23 01:17:23;;;;;;;54.40;34.90;;;;;;;14.53;100.00;100323.28;7395216;19;20420;-44
2023/05/23 01:20:11;;;;;;;43.40;29.83;;;;;;;14.53;100.00;100329.38;7392581;19;20418;-45
2023/05/23 01:22:59;;;;;;;42.70;29.60;;;;;;;14.61;100.00;100321.69;7395316;19;20486;-47
2023/05/23 01:25:41;;;;;;;45.37;29.87;;;;;;;14.39;100.00;100323.91;7390044;19;20418;-43
2023/05/23 01:28:16;;;;;;;42.93;28.73;;;;;;;14.30;100.00;100326.31;7394762;19;20471;-43
2023/05/23 01:30:47;;;;;;;34.43;26.27;;;;;;;14.23;100.00;100329.63;7389316;19;20530;-43
2023/05/23 01:33:18;;;;;;;37.13;27.10;;;;;;;14.20;100.00;100337.38;7394512;19;20429;-47
2023/05/23 01:35:48;;;;;;;35.73;26.77;;;;;;;14.18;100.00;100337.31;7382864;19;20525;-48
2023/05/23 01:38:17;;;;;;;36.10;27.33;;;;;;;14.16;100.00;100336.44;7390414;19;20415;-45
2023/05/23 01:40:47;;;;;;;36.83;26.10;;;;;;;14.16;100.00;100329.50;7385267;19;20542;-45
2023/05/23 01:43:19;;;;;;;34.37;25.10;;;;;;;14.17;100.00;100326.06;7390544;19;20416;-46
2023/05/23 01:45:49;;;;;;;35.13;24.20;;;;;;;14.18;100.00;100326.94;7384559;19;20450;-45
2023/05/23 01:48:19;;;;;;;32.57;24.60;;;;;;;14.15;100.00;100322.56;7391089;19;20407;-43
2023/05/23 01:50:49;;;;;;;30.20;24.43;;;;;;;14.15;100.00;100327.75;7386434;19;20462;-44
2023/05/23 01:53:23;;;;;;;30.93;22.83;;;;;;;14.16;100.00;100326.91;7391470;19;20421;-43
2023/05/23 01:55:54;;;;;;;32.03;24.10;;;;;;;14.15;100.00;100325.16;7384945;19;20458;-45
2023/05/23 01:58:26;;;;;;;35.50;24.43;;;;;;;14.11;100.00;100336.31;7390235;19;20411;-45
2023/05/23 02:00:56;;;;;;;28.30;22.40;;;;;;;14.17;100.00;100325.19;7385354;19;20454;-48
2023/05/23 02:03:25;;;;;;;29.13;23.30;;;;;;;14.21;100.00;100320.94;7391925;19;20746;-47
2023/05/23 02:05:55;;;;;;;31.70;23.50;;;;;;;14.23;100.00;100319.25;7386252;19;20523;-45
2023/05/23 02:08:25;;;;;;;32.10;23.87;;;;;;;14.16;100.00;100324.31;7392583;19;20410;-46
2023/05/23 02:10:54;;;;;;;32.23;24.90;;;;;;;14.20;100.00;100308.81;7385535;19;20453;-46
2023/05/23 02:13:26;;;;;;;31.67;24.10;;;;;;;14.24;100.00;100311.50;7390174;19;20421;-46
2023/05/23 02:15:56;;;;;;;35.47;26.63;;;;;;;14.22;100.00;100320.09;7381695;19;20465;-44
2023/05/23 02:18:28;;;;;;;45.83;27.40;;;;;;;14.11;100.00;100319.88;7392471;19;20418;-44
2023/05/23 02:20:57;;;;;;;39.80;29.80;;;;;;;14.00;100.00;100319.69;7386474;19;20454;-45
2023/05/23 02:23:27;;;;;;;46.30;32.00;;;;;;;13.98;100.00;100319.63;7392299;19;20754;-47
2023/05/23 02:25:57;;;;;;;46.63;33.03;;;;;;;13.93;100.00;100333.38;7385616;19;20518;-45
2023/05/23 02:28:29;;;;;;;62.37;38.47;;;;;;;13.72;100.00;100326.84;7389861;19;21141;-44
2023/05/23 02:30:58;;;;;;;62.93;39.53;;;;;;;13.69;100.00;100331.97;7385364;19;20484;-45
2023/05/23 02:33:28;;;;;;;69.93;44.90;;;;;;;13.55;100.00;100332.56;7391101;19;20409;-48
2023/05/23 02:35:58;;;;;;;70.27;45.80;;;;;;;13.47;100.00;100337.56;7385488;19;20915;-46
2023/05/23 02:38:29;;;;;;;78.93;46.17;;;;;;;13.41;100.00;100332.19;7391747;19;20412;-44
2023/05/23 02:40:59;;;;;;;75.40;46.30;;;;;;;13.32;100.00;100332.84;7386612;19;20451;-43
2023/05/23 02:43:31;;;;;;;76.67;44.90;;;;;;;13.37;100.00;100331.25;7392940;19;20422;-44
2023/05/23 02:46:01;;;;;;;80.00;47.10;;;;;;;13.16;100.00;100341.06;7385246;19;20521;-45
2023/05/23 02:48:31;;;;;;;82.30;46.07;;;;;;;13.13;100.00;100335.84;7394450;19;20413;-44
2023/05/23 02:51:00;;;;;;;81.77;46.63;;;;;;;13.12;100.00;100334.94;7393160;19;20482;-48
2023/05/23 02:53:30;;;;;;;99.73;53.57;;;;;;;13.04;100.00;100339.97;7397938;19;20413;-43
2023/05/23 02:56:00;;;;;;;96.47;51.03;;;;;;;13.03;100.00;100343.38;7393657;19;20643;-49
2023/05/23 02:58:34;;;;;;;102.60;54.13;;;;;;;13.01;100.00;100345.03;7398185;19;20403;-48
2023/05/23 03:01:04;;;;;;;102.47;48.53;;;;;;;12.91;100.00;100351.72;7393386;19;20524;-43
2023/05/23 03:03:36;;;;;;;96.13;50.70;;;;;;;12.95;100.00;100347.47;7398997;19;20428;-46
2023/05/23 03:06:06;;;;;;;107.77;52.17;;;;;;;12.99;100.00;100357.09;7394805;19;20459;-48
2023/05/23 03:08:36;;;;;;;108.20;54.47;;;;;;;13.01;100.00;100358.00;7398829;19;20511;-46
2023/05/23 03:11:05;;;;;;;109.00;54.70;;;;;;;12.96;100.00;100359.59;7393942;19;20455;-50
2023/05/23 03:13:37;;;;;;;118.83;54.87;;;;;;;12.97;100.00;100356.16;7397847;19;20410;-45
2023/05/23 03:16:07;;;;;;;114.27;54.70;;;;;;;12.94;100.00;100356.09;7386914;19;20823;-46
2023/05/23 03:18:37;;;;;;;102.70;49.80;;;;;;;12.81;100.00;100355.78;7398538;19;21051;-47
2023/05/23 03:21:06;;;;;;;112.67;53.90;;;;;;;12.88;100.00;100351.66;7393960;19;20464;-48
2023/05/23 03:23:36;;;;;;;99.00;48.73;;;;;;;12.82;100.00;100348.91;7397659;19;20404;-46
2023/05/23 03:26:06;;;;;;;101.43;50.67;;;;;;;12.88;100.00;100351.66;7393784;19;21143;-47
2023/05/23 03:28:38;;;;;;;109.50;50.70;;;;;;;12.87;100.00;100349.88;7397383;19;20424;-47
2023/05/23 03:31:07;;;;;;;97.83;46.93;;;;;;;12.78;100.00;100355.69;7392643;19;20459;-47
2023/05/23 03:33:37;;;;;;;93.70;46.70;;;;;;;12.75;100.00;100357.31;7397415;19;21069;-46
2023/05/23 03:36:09;;;;;;;98.57;47.67;;;;;;;12.80;100.00;100348.84;7392436;19;20480;-46
2023/05/23 03:38:38;;;;;;;84.83;46.43;;;;;;;12.77;100.00;100356.50;7397431;19;20410;-48
2023/05/23 03:41:08;;;;;;;105.53;47.90;;;;;;;12.78;100.00;100350.50;7392172;19;20457;-45
2023/05/23 03:43:40;;;;;;;83.50;43.10;;;;;;;12.79;100.00;100383.34;7397186;19;20508;-47
2023/05/23 03:46:10;;;;;;;91.57;45.77;;;;;;;12.79;100.00;100348.81;7389485;19;20806;-46
2023/05/23 03:48:39;;;;;;;92.30;44.80;;;;;;;12.79;100.00;100339.34;7397762;19;20965;-43
2023/05/23 03:51:10;;;;;;;81.77;41.73;;;;;;;12.68;100.00;100341.63;7393537;19;20522;-46
2023/05/23 03:53:39;;;;;;;84.23;43.97;;;;;;;12.79;100.00;100346.22;7397815;19;20787;-48
2023/05/23 03:56:09;;;;;;;85.73;43.10;;;;;;;12.81;100.00;100344.53;7391684;19;20516;-50
2023/05/23 03:58:41;;;;;;;81.30;41.27;;;;;;;12.85;100.00;100342.88;7396699;19;20412;-45
2023/05/23 04:01:11;;;;;;;85.27;42.53;;;;;;;12.81;100.00;100348.00;7392235;19;20444;-44
2023/05/23 04:03:41;;;;;;;81.57;41.07;;;;;;;12.84;100.00;100342.03;7400092;19;20424;-46
2023/05/23 04:06:10;;;;;;;80.33;41.70;;;;;;;12.79;100.00;100349.69;7392842;19;20525;-48
2023/05/23 04:08:44;;;;;;;82.20;41.57;;;;;;;12.79;100.00;100352.28;7397125;19;20954;-45
2023/05/23 04:11:13;;;;;;;87.07;41.43;;;;;;;12.77;100.00;100350.47;7391965;19;20443;-46
2023/05/23 04:13:45;;;;;;;78.23;41.10;;;;;;;12.73;100.00;100362.47;7397400;19;20770;-47
2023/05/23 04:16:15;;;;;;;68.80;40.20;;;;;;;12.76;100.00;100352.19;7391661;19;20438;-47
2023/05/23 04:18:46;;;;;;;77.47;41.10;;;;;;;12.71;100.00;100358.94;7397482;19;20754;-47
2023/05/23 04:21:15;;;;;;;75.40;40.23;;;;;;;12.72;100.00;100355.50;7391801;19;20521;-46
2023/05/23 04:23:46;;;;;;;82.97;39.30;;;;;;;12.65;100.00;100372.59;7397304;19;20422;-46
2023/05/23 04:26:15;;;;;;;79.00;38.63;;;;;;;12.63;100.00;100376.00;7392172;19;20528;-50
2023/05/23 04:28:49;;;;;;;86.17;42.13;;;;;;;12.54;100.00;100377.50;7397623;19;20808;-45
2023/05/23 04:31:18;;;;;;;72.47;37.60;;;;;;;12.47;100.00;100383.34;7392241;19;20528;-43
2023/05/23 04:33:48;;;;;;;80.97;39.77;;;;;;;12.55;100.00;100380.94;7395147;19;20494;-44
2023/05/23 04:36:17;;;;;;;85.60;39.30;;;;;;;12.49;100.00;100384.25;7391160;19;20445;-45
2023/05/23 04:38:47;;;;;;;91.37;40.97;;;;;;;12.49;100.00;100386.84;7394897;19;20998;-48
2023/05/23 04:41:22;;;;;;;77.70;37.90;;;;;;;12.47;100.00;100391.09;7391033;19;20482;-46
2023/05/23 04:43:57;;;;;;;91.30;40.77;;;;;;;12.38;100.00;100396.00;7395476;19;20401;-47
2023/05/23 04:46:27;;;;;;;78.33;39.43;;;;;;;12.45;100.00;100385.00;7391182;19;20445;-44
2023/05/23 04:48:57;;;;;;;82.73;39.57;;;;;;;12.48;100.00;100392.84;7395027;19;20477;-46
2023/05/23 04:51:27;;;;;;;76.93;40.10;;;;;;;12.40;100.00;100392.63;7392237;19;20990;-45
2023/05/23 04:53:56;;;;;;;80.57;41.60;;;;;;;12.42;100.00;100387.50;7395201;19;20518;-46
2023/05/23 04:56:27;;;;;;;81.73;38.47;;;;;;;12.41;100.00;100390.94;7391072;19;20445;-43
2023/05/23 04:59:00;;;;;;;84.87;40.63;;;;;;;12.34;100.00;100394.16;7394681;19;20492;-45
2023/05/23 05:01:30;;;;;;;86.50;39.00;;;;;;;12.33;100.00;100397.56;7390809;19;20471;-46
2023/05/23 05:03:59;;;;;;;81.77;39.67;;;;;;;12.37;100.00;100386.50;7395467;19;20405;-45
2023/05/23 05:06:29;;;;;;;83.17;38.33;;;;;;;12.35;100.00;100395.94;7391143;19;20450;-48
2023/05/23 05:08:59;;;;;;;94.43;41.80;;;;;;;12.32;100.00;100391.53;7394461;19;20751;-45
2023/05/23 05:11:28;;;;;;;82.40;40.53;;;;;;;12.37;100.00;100425.28;7389014;19;20466;-46
2023/05/23 05:14:01;;;;;;;87.23;41.83;;;;;;;12.38;100.00;100385.66;7395268;19;20409;-48
2023/05/23 05:16:30;;;;;;;97.73;41.33;;;;;;;12.38;100.00;100398.59;7389838;19;20426;-45
2023/05/23 05:19:00;;;;;;;98.87;42.20;;;;;;;12.44;100.00;100393.59;7394228;19;20413;-46
2023/05/23 05:21:30;;;;;;;93.60;41.80;;;;;;;12.35;100.00;100391.63;7390133;19;20447;-47
2023/05/23 05:24:00;;;;;;;89.90;43.10;;;;;;;12.40;100.00;100389.16;7394200;19;20415;-47
2023/05/23 05:26:30;;;;;;;111.23;42.90;;;;;;;12.40;100.00;100404.69;7390520;19;20779;-44
2023/05/23 05:29:02;;;;;;;104.13;43.50;;;;;;;12.50;100.00;100391.19;7393362;19;20490;-50
2023/05/23 05:31:31;;;;;;;114.00;55.47;;;;;;;12.61;100.00;100385.44;7389734;19;20464;-48
2023/05/23 05:34:01;;;;;;;106.47;45.13;;;;;;;12.46;100.00;100394.50;7393453;19;20759;-45
2023/05/23 05:36:31;;;;;;;125.43;52.20;;;;;;;12.53;100.00;100401.63;7388791;19;20788;-45
2023/05/23 05:39:00;;;;;;;104.47;43.00;;;;;;;12.60;100.00;100401.81;7393969;19;21023;-47
2023/05/23 05:41:30;;;;;;;96.40;43.73;;;;;;;12.58;100.00;100399.16;7389336;19;20542;-44
2023/05/23 05:44:02;;;;;;;88.73;40.60;;;;;;;12.51;100.00;100398.09;7393427;19;20426;-47
2023/05/23 05:46:32;;;;;;;92.47;40.50;;;;;;;12.38;100.00;100401.19;7389382;19;20440;-47
2023/05/23 05:49:01;;;;;;;90.43;44.10;;;;;;;12.46;100.00;100414.34;7393560;19;20433;-44
2023/05/23 05:51:31;;;;;;;103.10;46.20;;;;;;;12.44;100.00;100411.69;7389247;19;20456;-47
2023/05/23 05:54:01;;;;;;;104.90;44.80;;;;;;;12.47;100.00;100416.09;7393542;19;20408;-45
2023/05/23 05:56:31;;;;;;;110.77;44.27;;;;;;;12.53;100.00;100417.16;7389495;19;20445;-44
2023/05/23 05:59:03;;;;;;;110.50;45.37;;;;;;;12.52;100.00;100415.38;7392869;19;20588;-44
2023/05/23 06:01:33;;;;;;;106.73;44.57;;;;;;;12.56;100.00;100421.50;7388384;19;20525;-44
2023/05/23 06:04:03;;;;;;;117.40;46.80;;;;;;;12.58;100.00;100437.09;7394296;19;20406;-46
2023/05/23 06:06:33;;;;;;;97.20;44.33;;;;;;;12.60;100.00;100433.72;7388463;19;20446;-47
2023/05/23 06:09:03;;;;;;;105.97;45.23;;;;;;;12.60;100.00;100428.53;7392558;19;20523;-46
2023/05/23 06:11:32;;;;;;;113.50;48.30;;;;;;;12.54;100.00;100429.25;7388297;19;20462;-49
2023/05/23 06:14:06;;;;;;;108.40;43.20;;;;;;;12.55;100.00;100431.00;7393150;19;20757;-44
2023/05/23 06:16:36;;;;;;;113.13;43.37;;;;;;;12.58;100.00;100435.38;7388750;19;20997;-45
2023/05/23 06:19:05;;;;;;;90.07;41.00;;;;;;;12.51;100.00;100436.06;7392466;19;21245;-48
2023/05/23 06:21:35;;;;;;;111.37;44.00;;;;;;;12.54;100.00;100439.59;7388561;19;20447;-44
2023/05/23 06:24:05;;;;;;;111.27;45.07;;;;;;;12.55;100.00;100443.94;7389773;19;20399;-44
2023/05/23 06:26:36;;;;;;;113.93;46.07;;;;;;;12.53;100.00;100440.44;7388202;19;20445;-43
2023/05/23 06:29:08;;;;;;;110.70;44.20;;;;;;;12.49;100.00;100451.53;7394092;19;20883;-45
2023/05/23 06:31:38;;;;;;;108.17;41.37;;;;;;;12.50;100.00;100447.22;7388193;19;20448;-45
2023/05/23 06:34:07;;;;;;;105.37;44.47;;;;;;;12.52;100.00;100450.75;7391756;19;21282;-48
2023/05/23 06:36:37;;;;;;;108.53;45.63;;;;;;;12.51;100.00;100443.81;7387254;19;20567;-46
2023/05/23 06:39:08;;;;;;;120.97;46.80;;;;;;;12.55;100.00;100451.69;7392608;19;20829;-44
2023/05/23 06:41:38;;;;;;;92.10;44.03;;;;;;;12.54;100.00;100449.97;7387618;19;20986;-47
2023/05/23 06:44:10;;;;;;;106.47;43.37;;;;;;;12.61;100.00;100457.91;7391364;19;20402;-48
2023/05/23 06:46:40;;;;;;;92.33;43.00;;;;;;;12.65;100.00;100462.31;7387380;19;20451;-45
2023/05/23 06:49:09;;;;;;;94.60;42.60;;;;;;;12.67;100.00;100460.66;7391697;19;20475;-46
2023/05/23 06:51:43;;;;;;;75.73;39.87;;;;;;;12.67;100.00;100458.06;7387235;19;20461;-48
2023/05/23 06:54:13;;;;;;;87.97;40.30;;;;;;;12.66;100.00;100459.78;7393602;19;20843;-51
2023/05/23 06:56:43;;;;;;;84.37;38.57;;;;;;;12.65;100.00;100457.13;7387965;19;20439;-48
2023/05/23 06:59:15;;;;;;;63.37;34.57;;;;;;;12.65;100.00;100459.72;7390849;19;20431;-46
2023/05/23 07:01:44;;;;;;;56.13;32.37;;;;;;;12.59;100.00;100472.47;7387282;19;20502;-45
2023/05/23 07:04:14;;;;;;;55.67;31.20;;;;;;;12.52;100.00;100471.44;7390535;19;20419;-45
2023/05/23 07:06:44;;;;;;;46.40;29.07;;;;;;;12.50;100.00;100479.16;7387986;19;20521;-49
2023/05/23 07:09:13;;;;;;;42.47;27.37;;;;;;;12.46;100.00;100479.88;7391139;19;20399;-48
2023/05/23 07:11:43;;;;;;;41.03;25.90;;;;;;;12.41;100.00;100484.06;7386631;19;20472;-48
2023/05/23 07:14:15;;;;;;;40.53;24.23;;;;;;;12.40;100.00;100490.03;7390961;19;20415;-47
2023/05/23 07:16:45;;;;;;;31.47;21.33;;;;;;;12.34;100.00;100493.34;7387255;19;20462;-46
2023/05/23 07:19:15;;;;;;;31.97;20.67;;;;;;;12.26;100.00;100490.50;7390482;19;20407;-46
2023/05/23 07:21:44;;;;;;;29.60;20.37;;;;;;;12.21;100.00;100492.06;7387139;19;20448;-46
2023/05/23 07:24:14;;;;;;;25.10;18.40;;;;;;;12.30;100.00;100486.31;7391713;19;20833;-48
2023/05/23 07:26:43;;;;;;;28.97;18.80;;;;;;;12.33;100.00;100485.53;7387423;19;20523;-48
2023/05/23 07:29:16;;;;;;;28.07;17.33;;;;;;;12.34;100.00;100482.09;7392862;19;20404;-47
2023/05/23 07:31:45;;;;;;;26.00;17.30;;;;;;;12.35;100.00;100483.88;7385750;19;20477;-49
2023/05/23 07:34:15;;;;;;;22.77;16.30;;;;;;;12.40;100.00;100482.28;7392554;19;20769;-49
2023/05/23 07:36:44;;;;;;;21.03;13.83;;;;;;;12.31;100.00;100488.06;7393885;19;20431;-51
2023/05/23 07:39:14;;;;;;;24.80;14.40;;;;;;;12.40;100.00;100483.19;7397426;19;20411;-49
2023/05/23 07:41:43;;;;;;;22.47;13.90;;;;;;;12.41;100.00;100503.03;7392990;19;20473;-48
2023/05/23 07:44:16;;;;;;;26.00;13.67;;;;;;;12.51;100.00;100496.44;7396712;19;20417;-49
2023/05/23 07:46:45;;;;;;;17.80;13.03;;;;;;;12.72;100.00;100490.09;7393859;19;20440;-47
2023/05/23 07:49:15;;;;;;;21.63;12.47;;;;;;;12.77;100.00;100513.56;7397047;19;20486;-47
2023/05/23 07:51:45;;;;;;;16.47;11.90;;;;;;;12.83;100.00;100488.72;7392963;19;20531;-49
2023/05/23 07:54:14;;;;;;;19.07;11.80;;;;;;;12.87;100.00;100501.75;7396450;19;20414;-50
2023/05/23 07:56:45;;;;;;;15.13;11.90;;;;;;;12.89;100.00;100493.22;7393894;19;20456;-45
2023/05/23 07:59:17;;;;;;;15.17;10.97;;;;;;;12.88;100.00;100512.16;7396252;19;20420;-46
2023/05/23 08:01:49;;;;;;;17.50;11.93;;;;;;;12.93;100.00;100540.78;7393593;19;20467;-46
2023/05/23 08:04:19;;;;;;;60.93;31.53;;;;;;;13.05;100.00;100540.22;7396202;19;20843;-44
2023/05/23 08:06:48;;;;;;;16.53;10.83;;;;;;;13.15;100.00;100569.84;7393387;19;20442;-45
2023/05/23 08:09:34;;;;;;;16.20;9.90;;;;;;;13.21;100.00;100586.47;7393007;19;20787;-47
2023/05/23 08:12:03;;;;;;;18.03;9.90;;;;;;;13.02;100.00;100623.91;7395363;19;20462;-45
2023/05/23 08:14:35;;;;;;;13.77;10.33;;;;;;;13.04;100.00;100702.53;7396207;19;20399;-45
2023/05/23 08:17:19;;;;;;;11.73;8.70;;;;;;;13.00;100.00;100853.47;7396453;19;20426;-45
2023/05/23 08:19:49;;;;;;;13.33;8.77;;;;;;;12.90;100.00;100994.69;7391752;19;20450;-46
2023/05/23 08:22:18;;;;;;;13.37;8.10;;;;;;;12.93;100.00;101056.94;7396239;19;20454;-45
2023/05/23 08:24:48;;;;;;;11.73;6.60;;;;;;;12.73;100.00;101105.41;7393184;19;20481;-47
2023/05/23 08:27:17;;;;;;;12.03;6.70;;;;;;;12.85;100.00;101132.56;7396265;19;20427;-46
2023/05/23 08:29:51;;;;;;;11.30;6.90;;;;;;;12.81;100.00;101152.28;7393186;19;20479;-49
2023/05/23 08:32:21;;;;;;;10.20;6.90;;;;;;;12.90;100.00;101163.03;7395719;19;20522;-48
2023/05/23 08:34:51;;;;;;;10.13;6.23;;;;;;;12.79;100.00;101190.19;7390868;19;20426;-44
2023/05/23 08:37:20;;;;;;;9.60;6.30;;;;;;;12.75;100.00;101209.00;7397786;19;20423;-47
2023/05/23 08:39:51;;;;;;;10.83;5.10;;;;;;;12.78;100.00;101225.56;7390976;19;20427;-46
2023/05/23 08:42:20;;;;;;;9.73;5.60;;;;;;;12.45;100.00;101220.78;7395031;19;20451;-48
2023/05/23 08:44:53;;;;;;;9.03;6.53;;;;;;;12.47;100.00;101224.34;7390368;19;20412;-46
2023/05/23 08:47:23;;;;;;;11.63;6.73;;;;;;;12.45;100.00;101231.13;7393886;19;20442;-45
2023/05/23 08:49:54;;;;;;;15.13;7.40;;;;;;;12.46;100.00;101240.66;7390836;19;20416;-46
2023/05/23 08:52:26;;;;;;;11.90;7.17;;;;;;;12.42;100.00;101241.38;7395086;19;20459;-45
2023/05/23 08:54:56;;;;;;;15.37;8.30;;;;;;;12.31;100.00;101248.66;7390281;19;21090;-47
2023/05/23 08:57:27;;;;;;;14.20;8.27;;;;;;;12.35;100.00;101239.34;7395302;19;20488;-47
2023/05/23 08:59:59;;;;;;;14.50;9.23;;;;;;;12.33;100.00;101230.63;7388713;19;21100;-49
2023/05/23 09:02:29;;;;;;;17.17;8.73;;;;;;;12.33;100.00;101235.78;7392366;19;20437;-47
2023/05/23 09:04:59;;;;;;;16.43;9.17;;;;;;;12.34;100.00;101232.38;7389984;19;20433;-45
2023/05/23 09:07:30;;;;;;;22.90;12.93;;;;;;;12.23;100.00;101225.06;7396466;19;20405;-45
2023/05/23 09:10:00;;;;;;;16.23;10.03;;;;;;;12.25;100.00;101225.13;7392738;19;20827;-45
2023/05/23 09:12:29;;;;;;;19.97;10.77;;;;;;;12.00;100.00;101216.28;7394427;19;20445;-51
2023/05/23 09:15:02;;;;;;;30.57;14.40;;;;;;;11.86;100.00;101218.28;7391097;19;20437;-47
2023/05/23 09:17:32;;;;;;;26.60;15.47;;;;;;;11.76;100.00;101214.41;7395347;19;20409;-48
2023/05/23 09:20:03;;;;;;;20.57;11.20;;;;;;;11.68;100.00;101214.03;7394114;19;20432;-47
2023/05/23 09:22:33;;;;;;;17.60;11.70;;;;;;;11.73;100.00;101212.56;7402208;19;20464;-46
2023/05/23 09:25:03;;;;;;;18.70;11.53;;;;;;;11.69;100.00;101205.47;7395355;19;20483;-46
2023/05/23 09:27:33;;;;;;;35.50;14.47;;;;;;;11.73;100.00;101199.63;7402458;19;20427;-46
2023/05/23 09:30:10;;;;;;;17.23;11.33;;;;;;;11.58;100.00;101197.25;7394316;19;20414;-44
2023/05/23 09:32:40;;;;;;;24.70;11.40;;;;;;;11.41;100.00;101188.75;7396310;19;20454;-45
2023/05/23 09:35:12;;;;;;;29.23;13.27;;;;;;;11.41;100.00;101190.44;7390765;19;20442;-45
2023/05/23 09:37:45;;;;;;;16.00;7.70;;;;;;;11.36;100.00;101177.31;7395572;19;20418;-47
2023/05/23 09:40:16;;;;;;;13.93;7.93;;;;;;;11.31;100.00;101178.81;7390888;19;20493;-46
2023/05/23 09:42:48;;;;;;;26.00;10.27;;;;;;;11.35;100.00;101176.41;7396296;19;20982;-46
2023/05/23 09:45:20;;;;;;;21.70;9.30;;;;;;;11.24;100.00;101184.50;7388210;19;20792;-46
2023/05/23 09:47:53;;;;;;;15.23;7.80;;;;;;;11.18;100.00;101188.56;7393040;19;20419;-48
2023/05/23 09:50:25;;;;;;;10.53;5.77;;;;;;;11.23;100.00;101198.22;7390647;19;20442;-46
2023/05/23 09:52:55;;;;;;;18.30;8.40;;;;;;;11.21;100.00;101203.31;7393010;19;20418;-47
2023/05/23 09:55:25;;;;;;;26.47;11.20;;;;;;;11.13;100.00;101187.47;7388245;19;20425;-44
2023/05/23 09:57:56;;;;;;;20.83;8.43;;;;;;;11.15;100.00;101209.09;7391988;19;20413;-47
2023/05/23 10:00:28;;;;;;;11.87;4.80;;;;;;;11.11;100.00;101208.88;7388135;19;20414;-51
2023/05/23 10:03:09;;;;;;;10.77;6.30;;;;;;;11.04;100.00;101208.56;7394252;19;20411;-47
2023/05/23 10:05:43;;;;;;;10.17;4.40;;;;;;;11.00;100.00;101217.00;7387334;19;20774;-45
2023/05/23 10:08:16;;;;;;;10.70;5.20;;;;;;;11.10;100.00;101223.50;7392348;19;20933;-47
2023/05/23 10:11:16;;;;;;;31.27;15.60;;;;;;;11.11;100.00;101234.69;7389223;19;20820;-48
2023/05/23 10:13:47;;;;;;;53.87;23.00;;;;;;;11.00;100.00;101231.59;7387826;19;20504;-45
2023/05/23 10:16:21;;;;;;;8.57;5.30;;;;;;;10.92;100.00;101234.72;7386816;19;20470;-43
2023/05/23 10:18:56;;;;;;;20.80;5.67;;;;;;;10.81;100.00;101241.03;7391550;19;20909;-46
2023/05/23 10:21:27;;;;;;;21.50;8.20;;;;;;;10.79;100.00;101243.56;7387693;19;20456;-48
2023/05/23 10:23:56;;;;;;;8.07;4.73;;;;;;;10.79;100.00;101247.84;7392173;19;20422;-46
2023/05/23 10:26:26;;;;;;;24.57;10.30;;;;;;;10.90;100.00;101259.56;7388240;19;20463;-44
2023/05/23 10:28:57;;;;;;;12.43;5.60;;;;;;;10.98;100.00;101251.31;7391191;19;20424;-47
2023/05/23 10:31:29;;;;;;;23.87;8.67;;;;;;;10.94;100.00;101250.28;7387731;19;20471;-46
2023/05/23 10:34:04;;;;;;;11.90;4.90;;;;;;;10.94;100.00;101251.16;7392212;19;21064;-50
2023/05/23 10:36:37;;;;;;;9.57;4.27;;;;;;;10.97;100.00;101245.25;7387852;19;20453;-47
2023/05/23 10:39:12;;;;;;;21.33;7.33;;;;;;;10.91;100.00;101247.53;7391290;19;20414;-45
2023/05/23 10:41:46;;;;;;;11.03;4.70;;;;;;;10.98;100.00;101269.38;7387480;19;20532;-46
2023/05/23 10:44:20;;;;;;;15.43;5.00;;;;;;;11.03;100.00;101268.78;7390564;19;20437;-45
2023/05/23 10:46:57;;;;;;;7.27;3.70;;;;;;;10.96;100.00;101281.34;7391074;19;20418;-44
2023/05/23 10:49:39;;;;;;;9.67;4.10;;;;;;;11.02;100.00;101292.84;7391738;19;20428;-48
2023/05/23 10:52:10;;;;;;;12.60;3.90;;;;;;;11.03;100.00;101307.50;7380687;19;20446;-49
2023/05/23 10:54:44;;;;;;;26.43;7.83;;;;;;;11.11;100.00;101320.81;7391999;19;20957;-47
2023/05/23 10:57:18;;;;;;;13.00;4.70;;;;;;;11.13;100.00;101341.53;7383312;19;20446;-44
2023/05/23 10:59:48;;;;;;;9.73;3.47;;;;;;;11.15;100.00;101340.81;7391761;19;20411;-47
2023/05/23 11:02:21;;;;;;;10.30;3.70;;;;;;;11.28;100.00;101351.75;7370883;19;20450;-46
2023/05/23 11:05:20;;;;;;;36.67;10.53;;;;;;;11.38;100.00;101356.53;7392202;19;20405;-45
2023/05/23 11:08:08;;;;;;;17.60;3.60;;;;;;;11.31;100.00;101369.97;7393884;19;20539;-43
2023/05/23 11:10:56;;;;;;;14.00;3.70;;;;;;;11.46;100.00;101381.06;7393632;19;20440;-45
2023/05/23 11:13:25;;;;;;;28.60;5.50;;;;;;;11.66;100.00;101370.78;7397466;19;20407;-46
2023/05/23 11:15:55;;;;;;;39.33;14.53;;;;;;;11.82;100.00;101392.16;7393245;19;20993;-43
2023/05/23 11:18:30;;;;;;;13.23;4.33;;;;;;;11.95;100.00;101399.66;7400134;19;20419;-46
2023/05/23 11:21:00;;;;;;;18.53;5.40;;;;;;;11.96;100.00;101400.56;7392393;19;20472;-45